sensor_id;sensor_type;location;lat;lon;timestamp;P1;durP1;ratioP1;P2;durP2;ratioP2
2338;SDS011;1180;51.438;6.978;2023-03-16T00:01:10;4.07;;;2.20;;
2338;SDS011;1180;51.438;6.978;2023-03-16T00:03:38;3.70;;;1.57;;
2338;SDS011;1180;51.438;6.978;2023-03-16T00:06:19;3.03;;;1.80;;
2338;SDS011;1180;51.438;6.978;2023-03-16T00:08:44;2.53;;;1.50;;
2338;SDS011;1180;51.438;6.978;2023-03-16T00:11:10;3.00;;;1.90;;
2338;SDS011;1180;51.438;6.978;2023-03-16T00:13:36;3.67;;;1.60;;
2338;SDS011;1180;51.438;6.978;2023-03-16T00:16:01;2.10;;;1.90;;
2338;SDS011;1180;51.438;6.978;2023-03-16T00:18:31;2.57;;;2.10;;
2338;SDS011;1180;51.438;6.978;2023-03-16T00:21:05;8.13;;;2.10;;
2338;SDS011;1180;51.438;6.978;2023-03-16T00:23:30;2.67;;;2.10;;
2338;SDS011;1180;51.438;6.978;2023-03-16T00:26:00;2.30;;;2.10;;
2338;SDS011;1180;51.438;6.978;2023-03-16T00:28:33;3.35;;;2.10;;
2338;SDS011;1180;51.438;6.978;2023-03-16T00:31:00;4.57;;;1.63;;
2338;SDS011;1180;51.438;6.978;2023-03-16T00:33:30;3.67;;;2.63;;
2338;SDS011;1180;51.438;6.978;2023-03-16T00:35:58;2.97;;;1.98;;
2338;SDS011;1180;51.438;6.978;2023-03-16T00:38:31;12.53;;;2.27;;
2338;SDS011;1180;51.438;6.978;2023-03-16T00:41:01;2.93;;;2.47;;
2338;SDS011;1180;51.438;6.978;2023-03-16T00:43:31;4.33;;;2.90;;
2338;SDS011;1180;51.438;6.978;2023-03-16T00:46:04;2.80;;;2.03;;
2338;SDS011;1180;51.438;6.978;2023-03-16T00:48:35;4.23;;;2.50;;
2338;SDS011;1180;51.438;6.978;2023-03-16T00:51:01;4.40;;;2.10;;
2338;SDS011;1180;51.438;6.978;2023-03-16T00:53:28;2.67;;;2.00;;
2338;SDS011;1180;51.438;6.978;2023-03-16T00:55:55;4.10;;;2.43;;
2338;SDS011;1180;51.438;6.978;2023-03-16T00:58:20;3.10;;;2.37;;
2338;SDS011;1180;51.438;6.978;2023-03-16T01:00:47;3.40;;;2.37;;
2338;SDS011;1180;51.438;6.978;2023-03-16T01:03:12;5.27;;;2.90;;
2338;SDS011;1180;51.438;6.978;2023-03-16T01:05:38;2.27;;;2.00;;
2338;SDS011;1180;51.438;6.978;2023-03-16T01:08:05;6.60;;;2.37;;
2338;SDS011;1180;51.438;6.978;2023-03-16T01:10:32;3.50;;;2.30;;
2338;SDS011;1180;51.438;6.978;2023-03-16T01:12:58;4.10;;;2.50;;
2338;SDS011;1180;51.438;6.978;2023-03-16T01:15:24;3.43;;;2.20;;
2338;SDS011;1180;51.438;6.978;2023-03-16T01:17:49;2.20;;;1.73;;
2338;SDS011;1180;51.438;6.978;2023-03-16T01:20:15;3.20;;;2.13;;
2338;SDS011;1180;51.438;6.978;2023-03-16T01:22:43;2.47;;;1.90;;
2338;SDS011;1180;51.438;6.978;2023-03-16T01:25:10;3.50;;;2.13;;
2338;SDS011;1180;51.438;6.978;2023-03-16T01:27:36;4.27;;;2.23;;
2338;SDS011;1180;51.438;6.978;2023-03-16T01:30:02;3.70;;;2.03;;
2338;SDS011;1180;51.438;6.978;2023-03-16T01:32:29;2.30;;;1.97;;
2338;SDS011;1180;51.438;6.978;2023-03-16T01:34:54;5.70;;;2.63;;
2338;SDS011;1180;51.438;6.978;2023-03-16T01:37:19;3.90;;;1.93;;
2338;SDS011;1180;51.438;6.978;2023-03-16T01:39:46;1.83;;;1.53;;
2338;SDS011;1180;51.438;6.978;2023-03-16T01:42:12;3.70;;;1.70;;
2338;SDS011;1180;51.438;6.978;2023-03-16T01:44:49;1.93;;;1.60;;
2338;SDS011;1180;51.438;6.978;2023-03-16T01:47:16;1.95;;;1.60;;
2338;SDS011;1180;51.438;6.978;2023-03-16T01:49:42;2.33;;;1.70;;
2338;SDS011;1180;51.438;6.978;2023-03-16T01:52:13;3.37;;;2.10;;
2338;SDS011;1180;51.438;6.978;2023-03-16T01:54:45;2.83;;;2.10;;
2338;SDS011;1180;51.438;6.978;2023-03-16T01:57:14;4.33;;;2.07;;
2338;SDS011;1180;51.438;6.978;2023-03-16T01:59:54;3.00;;;1.80;;
2338;SDS011;1180;51.438;6.978;2023-03-16T02:02:45;1.40;;;1.30;;
2338;SDS011;1180;51.438;6.978;2023-03-16T02:05:22;2.60;;;1.83;;
2338;SDS011;1180;51.438;6.978;2023-03-16T02:07:53;3.30;;;2.20;;
2338;SDS011;1180;51.438;6.978;2023-03-16T02:10:23;2.90;;;1.83;;
2338;SDS011;1180;51.438;6.978;2023-03-16T02:12:52;4.03;;;2.47;;
2338;SDS011;1180;51.438;6.978;2023-03-16T02:15:18;2.00;;;1.60;;
2338;SDS011;1180;51.438;6.978;2023-03-16T02:17:44;1.67;;;1.53;;
2338;SDS011;1180;51.438;6.978;2023-03-16T02:22:59;3.63;;;2.27;;
2338;SDS011;1180;51.438;6.978;2023-03-16T02:25:26;2.90;;;2.40;;
2338;SDS011;1180;51.438;6.978;2023-03-16T02:30:52;6.13;;;2.30;;
2338;SDS011;1180;51.438;6.978;2023-03-16T02:33:17;2.40;;;1.90;;
2338;SDS011;1180;51.438;6.978;2023-03-16T02:35:45;3.33;;;2.20;;
2338;SDS011;1180;51.438;6.978;2023-03-16T02:38:10;2.27;;;2.07;;
2338;SDS011;1180;51.438;6.978;2023-03-16T02:40:36;3.50;;;1.60;;
2338;SDS011;1180;51.438;6.978;2023-03-16T02:43:04;1.83;;;1.63;;
2338;SDS011;1180;51.438;6.978;2023-03-16T02:45:50;3.47;;;1.87;;
2338;SDS011;1180;51.438;6.978;2023-03-16T02:48:24;3.22;;;1.75;;
2338;SDS011;1180;51.438;6.978;2023-03-16T02:51:17;2.75;;;1.95;;
2338;SDS011;1180;51.438;6.978;2023-03-16T02:53:43;5.07;;;3.83;;
2338;SDS011;1180;51.438;6.978;2023-03-16T02:56:09;2.43;;;1.50;;
2338;SDS011;1180;51.438;6.978;2023-03-16T02:58:35;3.67;;;2.40;;
2338;SDS011;1180;51.438;6.978;2023-03-16T03:01:00;2.40;;;2.20;;
2338;SDS011;1180;51.438;6.978;2023-03-16T03:03:26;2.40;;;1.93;;
2338;SDS011;1180;51.438;6.978;2023-03-16T03:05:51;2.13;;;1.90;;
2338;SDS011;1180;51.438;6.978;2023-03-16T03:08:17;5.30;;;2.30;;
2338;SDS011;1180;51.438;6.978;2023-03-16T03:10:44;3.17;;;1.80;;
2338;SDS011;1180;51.438;6.978;2023-03-16T03:13:10;2.67;;;2.20;;
2338;SDS011;1180;51.438;6.978;2023-03-16T03:15:36;3.60;;;1.70;;
2338;SDS011;1180;51.438;6.978;2023-03-16T03:18:01;4.10;;;2.23;;
2338;SDS011;1180;51.438;6.978;2023-03-16T03:20:28;2.97;;;2.30;;
2338;SDS011;1180;51.438;6.978;2023-03-16T03:22:53;2.33;;;1.70;;
2338;SDS011;1180;51.438;6.978;2023-03-16T03:25:19;3.10;;;2.40;;
2338;SDS011;1180;51.438;6.978;2023-03-16T03:27:46;3.40;;;2.50;;
2338;SDS011;1180;51.438;6.978;2023-03-16T03:30:14;2.90;;;1.90;;
2338;SDS011;1180;51.438;6.978;2023-03-16T03:32:41;3.77;;;2.70;;
2338;SDS011;1180;51.438;6.978;2023-03-16T03:35:08;3.00;;;2.50;;
2338;SDS011;1180;51.438;6.978;2023-03-16T03:37:39;1.77;;;1.67;;
2338;SDS011;1180;51.438;6.978;2023-03-16T03:40:06;2.23;;;1.63;;
2338;SDS011;1180;51.438;6.978;2023-03-16T03:42:34;2.43;;;1.90;;
2338;SDS011;1180;51.438;6.978;2023-03-16T03:45:00;1.77;;;1.67;;
2338;SDS011;1180;51.438;6.978;2023-03-16T03:47:25;2.20;;;2.00;;
2338;SDS011;1180;51.438;6.978;2023-03-16T03:49:50;2.80;;;2.10;;
2338;SDS011;1180;51.438;6.978;2023-03-16T03:52:16;1.80;;;1.60;;
2338;SDS011;1180;51.438;6.978;2023-03-16T03:54:41;3.67;;;1.70;;
2338;SDS011;1180;51.438;6.978;2023-03-16T03:57:06;4.00;;;2.23;;
2338;SDS011;1180;51.438;6.978;2023-03-16T03:59:32;3.20;;;1.80;;
2338;SDS011;1180;51.438;6.978;2023-03-16T04:01:59;2.93;;;2.40;;
2338;SDS011;1180;51.438;6.978;2023-03-16T04:04:24;1.60;;;1.37;;
2338;SDS011;1180;51.438;6.978;2023-03-16T04:06:50;2.60;;;2.40;;
2338;SDS011;1180;51.438;6.978;2023-03-16T04:09:15;2.20;;;2.00;;
2338;SDS011;1180;51.438;6.978;2023-03-16T04:11:41;2.30;;;2.07;;
2338;SDS011;1180;51.438;6.978;2023-03-16T04:14:06;3.53;;;1.80;;
2338;SDS011;1180;51.438;6.978;2023-03-16T04:16:33;4.00;;;1.93;;
2338;SDS011;1180;51.438;6.978;2023-03-16T04:18:58;4.23;;;1.90;;
2338;SDS011;1180;51.438;6.978;2023-03-16T04:21:24;2.73;;;2.00;;
2338;SDS011;1180;51.438;6.978;2023-03-16T04:23:49;3.10;;;1.80;;
2338;SDS011;1180;51.438;6.978;2023-03-16T04:26:18;2.23;;;1.83;;
2338;SDS011;1180;51.438;6.978;2023-03-16T04:28:46;3.93;;;2.30;;
2338;SDS011;1180;51.438;6.978;2023-03-16T04:31:12;1.73;;;1.63;;
2338;SDS011;1180;51.438;6.978;2023-03-16T04:33:38;2.30;;;2.10;;
2338;SDS011;1180;51.438;6.978;2023-03-16T04:36:05;2.33;;;2.13;;
2338;SDS011;1180;51.438;6.978;2023-03-16T04:38:31;2.40;;;2.20;;
2338;SDS011;1180;51.438;6.978;2023-03-16T04:40:59;3.00;;;2.67;;
2338;SDS011;1180;51.438;6.978;2023-03-16T04:43:25;5.30;;;2.10;;
2338;SDS011;1180;51.438;6.978;2023-03-16T04:45:51;5.57;;;2.30;;
2338;SDS011;1180;51.438;6.978;2023-03-16T04:48:16;2.63;;;2.20;;
2338;SDS011;1180;51.438;6.978;2023-03-16T04:50:42;2.63;;;2.10;;
2338;SDS011;1180;51.438;6.978;2023-03-16T04:53:07;3.37;;;2.40;;
2338;SDS011;1180;51.438;6.978;2023-03-16T04:55:33;2.63;;;2.43;;
2338;SDS011;1180;51.438;6.978;2023-03-16T04:57:58;3.07;;;2.50;;
2338;SDS011;1180;51.438;6.978;2023-03-16T05:00:23;2.53;;;2.17;;
2338;SDS011;1180;51.438;6.978;2023-03-16T05:02:49;2.80;;;2.33;;
2338;SDS011;1180;51.438;6.978;2023-03-16T05:05:18;3.00;;;2.73;;
2338;SDS011;1180;51.438;6.978;2023-03-16T05:07:43;4.27;;;2.77;;
2338;SDS011;1180;51.438;6.978;2023-03-16T05:10:10;4.43;;;2.40;;
2338;SDS011;1180;51.438;6.978;2023-03-16T05:12:37;4.40;;;2.73;;
2338;SDS011;1180;51.438;6.978;2023-03-16T05:15:03;2.97;;;2.40;;
2338;SDS011;1180;51.438;6.978;2023-03-16T05:17:29;5.37;;;2.93;;
2338;SDS011;1180;51.438;6.978;2023-03-16T05:19:55;4.83;;;3.07;;
2338;SDS011;1180;51.438;6.978;2023-03-16T05:22:20;3.67;;;2.63;;
2338;SDS011;1180;51.438;6.978;2023-03-16T05:24:46;3.17;;;2.80;;
2338;SDS011;1180;51.438;6.978;2023-03-16T05:27:11;4.03;;;2.70;;
2338;SDS011;1180;51.438;6.978;2023-03-16T05:29:36;2.47;;;2.27;;
2338;SDS011;1180;51.438;6.978;2023-03-16T05:32:02;8.17;;;3.13;;
2338;SDS011;1180;51.438;6.978;2023-03-16T05:34:27;4.27;;;3.07;;
2338;SDS011;1180;51.438;6.978;2023-03-16T05:36:53;3.80;;;3.40;;
2338;SDS011;1180;51.438;6.978;2023-03-16T05:39:18;4.10;;;3.00;;
2338;SDS011;1180;51.438;6.978;2023-03-16T05:41:45;4.50;;;3.03;;
2338;SDS011;1180;51.438;6.978;2023-03-16T05:44:10;5.17;;;3.67;;
2338;SDS011;1180;51.438;6.978;2023-03-16T05:46:35;6.53;;;3.67;;
2338;SDS011;1180;51.438;6.978;2023-03-16T05:49:01;3.60;;;2.53;;
2338;SDS011;1180;51.438;6.978;2023-03-16T05:51:27;3.97;;;3.13;;
2338;SDS011;1180;51.438;6.978;2023-03-16T05:53:52;3.37;;;3.07;;
2338;SDS011;1180;51.438;6.978;2023-03-16T05:56:25;3.80;;;3.40;;
2338;SDS011;1180;51.438;6.978;2023-03-16T05:58:52;4.40;;;3.90;;
2338;SDS011;1180;51.438;6.978;2023-03-16T06:01:19;3.60;;;3.10;;
2338;SDS011;1180;51.438;6.978;2023-03-16T06:03:48;3.93;;;2.93;;
2338;SDS011;1180;51.438;6.978;2023-03-16T06:06:15;7.63;;;3.17;;
2338;SDS011;1180;51.438;6.978;2023-03-16T06:08:42;3.30;;;2.63;;
2338;SDS011;1180;51.438;6.978;2023-03-16T06:11:09;3.53;;;3.20;;
2338;SDS011;1180;51.438;6.978;2023-03-16T06:13:35;5.67;;;3.37;;
2338;SDS011;1180;51.438;6.978;2023-03-16T06:16:01;4.77;;;3.57;;
2338;SDS011;1180;51.438;6.978;2023-03-16T06:18:27;4.97;;;2.93;;
2338;SDS011;1180;51.438;6.978;2023-03-16T06:20:52;3.77;;;2.93;;
2338;SDS011;1180;51.438;6.978;2023-03-16T06:23:18;3.13;;;2.83;;
2338;SDS011;1180;51.438;6.978;2023-03-16T06:25:48;3.97;;;3.00;;
2338;SDS011;1180;51.438;6.978;2023-03-16T06:28:15;5.33;;;3.40;;
2338;SDS011;1180;51.438;6.978;2023-03-16T06:30:46;3.93;;;3.17;;
2338;SDS011;1180;51.438;6.978;2023-03-16T06:33:22;3.60;;;2.80;;
2338;SDS011;1180;51.438;6.978;2023-03-16T06:35:50;3.50;;;3.07;;
2338;SDS011;1180;51.438;6.978;2023-03-16T06:38:22;3.50;;;3.20;;
2338;SDS011;1180;51.438;6.978;2023-03-16T06:40:59;5.70;;;3.03;;
2338;SDS011;1180;51.438;6.978;2023-03-16T06:43:31;5.53;;;2.70;;
2338;SDS011;1180;51.438;6.978;2023-03-16T06:46:01;5.43;;;2.33;;
2338;SDS011;1180;51.438;6.978;2023-03-16T06:48:35;3.63;;;2.40;;
2338;SDS011;1180;51.438;6.978;2023-03-16T06:51:03;2.87;;;2.60;;
2338;SDS011;1180;51.438;6.978;2023-03-16T06:53:31;3.30;;;2.90;;
2338;SDS011;1180;51.438;6.978;2023-03-16T06:55:58;3.60;;;2.40;;
2338;SDS011;1180;51.438;6.978;2023-03-16T06:58:26;3.93;;;2.87;;
2338;SDS011;1180;51.438;6.978;2023-03-16T07:00:59;3.43;;;3.17;;
2338;SDS011;1180;51.438;6.978;2023-03-16T07:03:27;5.27;;;3.00;;
2338;SDS011;1180;51.438;6.978;2023-03-16T07:05:59;5.23;;;2.70;;
2338;SDS011;1180;51.438;6.978;2023-03-16T07:08:27;3.30;;;2.80;;
2338;SDS011;1180;51.438;6.978;2023-03-16T07:11:16;3.70;;;2.83;;
2338;SDS011;1180;51.438;6.978;2023-03-16T07:13:50;2.83;;;2.63;;
2338;SDS011;1180;51.438;6.978;2023-03-16T07:16:16;4.83;;;2.50;;
2338;SDS011;1180;51.438;6.978;2023-03-16T07:18:43;4.40;;;2.33;;
2338;SDS011;1180;51.438;6.978;2023-03-16T07:21:27;4.13;;;2.70;;
2338;SDS011;1180;51.438;6.978;2023-03-16T07:23:56;3.60;;;2.50;;
2338;SDS011;1180;51.438;6.978;2023-03-16T07:26:29;2.37;;;2.17;;
2338;SDS011;1180;51.438;6.978;2023-03-16T07:29:02;6.93;;;2.73;;
2338;SDS011;1180;51.438;6.978;2023-03-16T07:31:35;2.70;;;2.50;;
2338;SDS011;1180;51.438;6.978;2023-03-16T07:34:08;2.47;;;2.27;;
2338;SDS011;1180;51.438;6.978;2023-03-16T07:36:42;3.47;;;2.80;;
2338;SDS011;1180;51.438;6.978;2023-03-16T07:39:34;5.10;;;3.23;;
2338;SDS011;1180;51.438;6.978;2023-03-16T07:42:05;4.50;;;2.50;;
2338;SDS011;1180;51.438;6.978;2023-03-16T07:44:34;4.70;;;2.70;;
2338;SDS011;1180;51.438;6.978;2023-03-16T07:47:08;3.20;;;2.70;;
2338;SDS011;1180;51.438;6.978;2023-03-16T07:49:37;4.47;;;2.60;;
2338;SDS011;1180;51.438;6.978;2023-03-16T07:52:21;5.97;;;2.83;;
2338;SDS011;1180;51.438;6.978;2023-03-16T07:55:12;3.60;;;3.30;;
2338;SDS011;1180;51.438;6.978;2023-03-16T07:57:55;3.63;;;2.73;;
2338;SDS011;1180;51.438;6.978;2023-03-16T08:00:37;3.53;;;2.70;;
2338;SDS011;1180;51.438;6.978;2023-03-16T08:03:28;4.30;;;2.57;;
2338;SDS011;1180;51.438;6.978;2023-03-16T08:06:42;3.03;;;2.43;;
2338;SDS011;1180;51.438;6.978;2023-03-16T08:09:29;4.47;;;2.80;;
2338;SDS011;1180;51.438;6.978;2023-03-16T08:12:26;3.33;;;2.67;;
2338;SDS011;1180;51.438;6.978;2023-03-16T08:15:14;3.57;;;3.07;;
2338;SDS011;1180;51.438;6.978;2023-03-16T08:18:04;2.87;;;2.40;;
2338;SDS011;1180;51.438;6.978;2023-03-16T08:20:32;2.47;;;2.13;;
2338;SDS011;1180;51.438;6.978;2023-03-16T08:22:58;4.67;;;3.53;;
2338;SDS011;1180;51.438;6.978;2023-03-16T08:25:25;6.73;;;4.97;;
2338;SDS011;1180;51.438;6.978;2023-03-16T08:27:51;4.17;;;3.17;;
2338;SDS011;1180;51.438;6.978;2023-03-16T08:31:01;3.23;;;2.93;;
2338;SDS011;1180;51.438;6.978;2023-03-16T08:33:53;2.70;;;2.50;;
2338;SDS011;1180;51.438;6.978;2023-03-16T08:36:30;3.27;;;2.97;;
2338;SDS011;1180;51.438;6.978;2023-03-16T08:39:05;4.27;;;2.47;;
2338;SDS011;1180;51.438;6.978;2023-03-16T08:41:35;3.80;;;2.93;;
2338;SDS011;1180;51.438;6.978;2023-03-16T08:44:07;3.20;;;2.90;;
2338;SDS011;1180;51.438;6.978;2023-03-16T08:46:35;3.47;;;3.17;;
2338;SDS011;1180;51.438;6.978;2023-03-16T08:49:04;6.23;;;2.87;;
2338;SDS011;1180;51.438;6.978;2023-03-16T08:51:31;3.53;;;3.13;;
2338;SDS011;1180;51.438;6.978;2023-03-16T08:53:57;3.23;;;2.97;;
2338;SDS011;1180;51.438;6.978;2023-03-16T08:56:26;4.57;;;3.17;;
2338;SDS011;1180;51.438;6.978;2023-03-16T08:58:56;5.83;;;2.93;;
2338;SDS011;1180;51.438;6.978;2023-03-16T09:01:22;2.83;;;2.60;;
2338;SDS011;1180;51.438;6.978;2023-03-16T09:03:51;3.63;;;3.30;;
2338;SDS011;1180;51.438;6.978;2023-03-16T09:06:22;4.77;;;3.50;;
2338;SDS011;1180;51.438;6.978;2023-03-16T09:08:48;3.90;;;3.10;;
2338;SDS011;1180;51.438;6.978;2023-03-16T09:11:18;4.30;;;3.57;;
2338;SDS011;1180;51.438;6.978;2023-03-16T09:13:45;3.83;;;3.50;;
2338;SDS011;1180;51.438;6.978;2023-03-16T09:16:12;3.17;;;2.87;;
2338;SDS011;1180;51.438;6.978;2023-03-16T09:18:39;3.73;;;3.33;;
2338;SDS011;1180;51.438;6.978;2023-03-16T09:21:12;8.00;;;3.17;;
2338;SDS011;1180;51.438;6.978;2023-03-16T09:23:39;4.37;;;3.40;;
2338;SDS011;1180;51.438;6.978;2023-03-16T09:26:09;4.60;;;3.50;;
2338;SDS011;1180;51.438;6.978;2023-03-16T09:28:39;4.43;;;2.80;;
2338;SDS011;1180;51.438;6.978;2023-03-16T09:31:11;5.70;;;3.30;;
2338;SDS011;1180;51.438;6.978;2023-03-16T09:33:47;5.67;;;3.73;;
2338;SDS011;1180;51.438;6.978;2023-03-16T09:36:15;8.90;;;4.30;;
2338;SDS011;1180;51.438;6.978;2023-03-16T09:38:44;4.40;;;3.27;;
2338;SDS011;1180;51.438;6.978;2023-03-16T09:47:27;4.40;;;3.70;;
2338;SDS011;1180;51.438;6.978;2023-03-16T09:49:59;5.83;;;3.67;;
2338;SDS011;1180;51.438;6.978;2023-03-16T09:55:26;3.70;;;3.30;;
2338;SDS011;1180;51.438;6.978;2023-03-16T09:57:58;4.00;;;3.50;;
2338;SDS011;1180;51.438;6.978;2023-03-16T10:00:26;4.57;;;2.70;;
2338;SDS011;1180;51.438;6.978;2023-03-16T10:06:02;5.60;;;3.67;;
2338;SDS011;1180;51.438;6.978;2023-03-16T10:08:36;5.77;;;3.43;;
2338;SDS011;1180;51.438;6.978;2023-03-16T10:16:31;3.90;;;3.10;;
2338;SDS011;1180;51.438;6.978;2023-03-16T10:21:43;4.23;;;3.83;;
2338;SDS011;1180;51.438;6.978;2023-03-16T10:27:24;4.03;;;3.47;;
2338;SDS011;1180;51.438;6.978;2023-03-16T10:29:57;4.37;;;3.97;;
2338;SDS011;1180;51.438;6.978;2023-03-16T10:32:30;5.63;;;3.87;;
2338;SDS011;1180;51.438;6.978;2023-03-16T10:35:13;5.43;;;4.30;;
2338;SDS011;1180;51.438;6.978;2023-03-16T10:38:02;4.57;;;3.20;;
2338;SDS011;1180;51.438;6.978;2023-03-16T10:40:31;3.60;;;3.30;;
2338;SDS011;1180;51.438;6.978;2023-03-16T10:43:07;3.90;;;3.50;;
2338;SDS011;1180;51.438;6.978;2023-03-16T10:45:37;4.73;;;3.40;;
2338;SDS011;1180;51.438;6.978;2023-03-16T10:48:07;4.93;;;3.57;;
2338;SDS011;1180;51.438;6.978;2023-03-16T10:50:42;3.93;;;2.70;;
2338;SDS011;1180;51.438;6.978;2023-03-16T10:53:17;5.60;;;2.80;;
2338;SDS011;1180;51.438;6.978;2023-03-16T10:55:47;2.90;;;2.70;;
2338;SDS011;1180;51.438;6.978;2023-03-16T10:58:23;4.60;;;3.37;;
2338;SDS011;1180;51.438;6.978;2023-03-16T11:00:53;5.07;;;3.00;;
2338;SDS011;1180;51.438;6.978;2023-03-16T11:03:30;5.97;;;3.40;;
2338;SDS011;1180;51.438;6.978;2023-03-16T11:06:03;2.70;;;2.50;;
2338;SDS011;1180;51.438;6.978;2023-03-16T11:08:34;3.70;;;2.60;;
2338;SDS011;1180;51.438;6.978;2023-03-16T11:11:12;3.50;;;2.93;;
2338;SDS011;1180;51.438;6.978;2023-03-16T11:13:47;3.10;;;2.50;;
2338;SDS011;1180;51.438;6.978;2023-03-16T11:27:36;1.93;;;1.60;;
2338;SDS011;1180;51.438;6.978;2023-03-16T11:30:18;3.77;;;2.10;;
2338;SDS011;1180;51.438;6.978;2023-03-16T11:32:47;3.90;;;2.47;;
2338;SDS011;1180;51.438;6.978;2023-03-16T11:35:18;3.00;;;2.20;;
2338;SDS011;1180;51.438;6.978;2023-03-16T11:40:32;3.10;;;2.80;;
2338;SDS011;1180;51.438;6.978;2023-03-16T11:46:15;2.77;;;2.27;;
2338;SDS011;1180;51.438;6.978;2023-03-16T11:49:02;2.60;;;2.40;;
2338;SDS011;1180;51.438;6.978;2023-03-16T11:51:46;3.47;;;2.30;;
2338;SDS011;1180;51.438;6.978;2023-03-16T12:05:30;5.13;;;3.20;;
2338;SDS011;1180;51.438;6.978;2023-03-16T12:13:35;2.47;;;2.20;;
2338;SDS011;1180;51.438;6.978;2023-03-16T12:16:27;3.10;;;2.33;;
2338;SDS011;1180;51.438;6.978;2023-03-16T12:18:54;2.83;;;2.17;;
2338;SDS011;1180;51.438;6.978;2023-03-16T12:21:27;3.47;;;2.43;;
2338;SDS011;1180;51.438;6.978;2023-03-16T12:24:09;2.27;;;2.03;;
2338;SDS011;1180;51.438;6.978;2023-03-16T12:26:39;3.57;;;2.20;;
2338;SDS011;1180;51.438;6.978;2023-03-16T12:29:54;2.60;;;2.10;;
2338;SDS011;1180;51.438;6.978;2023-03-16T12:38:06;3.10;;;2.10;;
2338;SDS011;1180;51.438;6.978;2023-03-16T12:40:46;2.80;;;2.33;;
2338;SDS011;1180;51.438;6.978;2023-03-16T12:48:29;3.87;;;1.70;;
2338;SDS011;1180;51.438;6.978;2023-03-16T12:51:01;2.40;;;2.17;;
2338;SDS011;1180;51.438;6.978;2023-03-16T12:53:45;4.30;;;2.03;;
2338;SDS011;1180;51.438;6.978;2023-03-16T12:56:19;2.53;;;2.30;;
2338;SDS011;1180;51.438;6.978;2023-03-16T12:58:54;2.20;;;2.00;;
2338;SDS011;1180;51.438;6.978;2023-03-16T13:01:25;4.63;;;1.77;;
2338;SDS011;1180;51.438;6.978;2023-03-16T13:07:08;4.00;;;2.57;;
2338;SDS011;1180;51.438;6.978;2023-03-16T13:09:42;5.27;;;2.47;;
2338;SDS011;1180;51.438;6.978;2023-03-16T13:12:22;4.07;;;2.30;;
2338;SDS011;1180;51.438;6.978;2023-03-16T13:14:57;2.30;;;2.10;;
2338;SDS011;1180;51.438;6.978;2023-03-16T13:17:27;2.70;;;2.50;;
2338;SDS011;1180;51.438;6.978;2023-03-16T13:20:05;3.20;;;2.23;;
2338;SDS011;1180;51.438;6.978;2023-03-16T13:28:39;5.07;;;2.93;;
2338;SDS011;1180;51.438;6.978;2023-03-16T13:31:23;3.30;;;2.30;;
2338;SDS011;1180;51.438;6.978;2023-03-16T13:33:52;2.93;;;2.30;;
2338;SDS011;1180;51.438;6.978;2023-03-16T13:36:24;2.33;;;1.70;;
2338;SDS011;1180;51.438;6.978;2023-03-16T13:38:55;4.77;;;2.17;;
2338;SDS011;1180;51.438;6.978;2023-03-16T13:41:29;3.70;;;2.40;;
2338;SDS011;1180;51.438;6.978;2023-03-16T13:43:54;3.63;;;2.13;;
2338;SDS011;1180;51.438;6.978;2023-03-16T13:46:20;3.10;;;1.93;;
2338;SDS011;1180;51.438;6.978;2023-03-16T13:48:51;2.97;;;1.93;;
2338;SDS011;1180;51.438;6.978;2023-03-16T13:51:17;5.57;;;2.27;;
2338;SDS011;1180;51.438;6.978;2023-03-16T13:53:44;2.43;;;1.90;;
2338;SDS011;1180;51.438;6.978;2023-03-16T13:56:15;2.70;;;2.40;;
2338;SDS011;1180;51.438;6.978;2023-03-16T13:58:43;4.27;;;2.50;;
2338;SDS011;1180;51.438;6.978;2023-03-16T14:01:18;2.30;;;2.10;;
2338;SDS011;1180;51.438;6.978;2023-03-16T14:03:49;3.23;;;2.80;;
2338;SDS011;1180;51.438;6.978;2023-03-16T14:06:23;4.83;;;2.30;;
2338;SDS011;1180;51.438;6.978;2023-03-16T14:08:56;2.43;;;1.50;;
2338;SDS011;1180;51.438;6.978;2023-03-16T14:11:25;2.53;;;1.90;;
2338;SDS011;1180;51.438;6.978;2023-03-16T14:13:52;2.53;;;1.90;;
2338;SDS011;1180;51.438;6.978;2023-03-16T14:16:20;1.63;;;1.53;;
2338;SDS011;1180;51.438;6.978;2023-03-16T14:19:00;2.90;;;1.90;;
2338;SDS011;1180;51.438;6.978;2023-03-16T14:21:27;3.27;;;2.40;;
2338;SDS011;1180;51.438;6.978;2023-03-16T14:24:01;3.40;;;2.30;;
2338;SDS011;1180;51.438;6.978;2023-03-16T14:26:41;2.70;;;1.73;;
2338;SDS011;1180;51.438;6.978;2023-03-16T14:31:55;3.27;;;2.10;;
2338;SDS011;1180;51.438;6.978;2023-03-16T14:34:35;3.83;;;2.73;;
2338;SDS011;1180;51.438;6.978;2023-03-16T14:37:09;2.13;;;1.60;;
2338;SDS011;1180;51.438;6.978;2023-03-16T14:39:56;2.07;;;1.87;;
2338;SDS011;1180;51.438;6.978;2023-03-16T14:42:26;8.30;;;2.13;;
2338;SDS011;1180;51.438;6.978;2023-03-16T14:44:53;3.00;;;2.10;;
2338;SDS011;1180;51.438;6.978;2023-03-16T14:47:23;1.83;;;1.40;;
2338;SDS011;1180;51.438;6.978;2023-03-16T14:49:52;2.53;;;1.77;;
2338;SDS011;1180;51.438;6.978;2023-03-16T14:52:28;2.80;;;2.10;;
2338;SDS011;1180;51.438;6.978;2023-03-16T14:54:58;2.20;;;1.63;;
2338;SDS011;1180;51.438;6.978;2023-03-16T14:57:24;11.20;;;2.87;;
2338;SDS011;1180;51.438;6.978;2023-03-16T14:59:51;2.90;;;1.70;;
2338;SDS011;1180;51.438;6.978;2023-03-16T15:02:19;3.00;;;1.83;;
2338;SDS011;1180;51.438;6.978;2023-03-16T15:04:53;3.47;;;1.90;;
2338;SDS011;1180;51.438;6.978;2023-03-16T15:07:25;4.70;;;2.00;;
2338;SDS011;1180;51.438;6.978;2023-03-16T15:09:53;3.33;;;2.00;;
2338;SDS011;1180;51.438;6.978;2023-03-16T15:12:20;2.47;;;1.80;;
2338;SDS011;1180;51.438;6.978;2023-03-16T15:14:48;2.33;;;1.60;;
2338;SDS011;1180;51.438;6.978;2023-03-16T15:17:32;2.93;;;1.67;;
2338;SDS011;1180;51.438;6.978;2023-03-16T15:19:57;3.30;;;1.57;;
2338;SDS011;1180;51.438;6.978;2023-03-16T15:22:26;3.20;;;1.43;;
2338;SDS011;1180;51.438;6.978;2023-03-16T15:24:54;1.80;;;1.50;;
2338;SDS011;1180;51.438;6.978;2023-03-16T15:27:24;1.90;;;1.50;;
2338;SDS011;1180;51.438;6.978;2023-03-16T15:29:59;1.80;;;1.50;;
2338;SDS011;1180;51.438;6.978;2023-03-16T15:32:25;1.80;;;1.60;;
2338;SDS011;1180;51.438;6.978;2023-03-16T15:34:51;2.87;;;1.30;;
2338;SDS011;1180;51.438;6.978;2023-03-16T15:37:16;2.10;;;1.10;;
2338;SDS011;1180;51.438;6.978;2023-03-16T15:39:43;2.30;;;1.37;;
2338;SDS011;1180;51.438;6.978;2023-03-16T15:42:12;3.17;;;1.67;;
2338;SDS011;1180;51.438;6.978;2023-03-16T15:44:43;2.17;;;1.20;;
2338;SDS011;1180;51.438;6.978;2023-03-16T15:47:09;1.77;;;1.40;;
2338;SDS011;1180;51.438;6.978;2023-03-16T15:49:35;3.70;;;1.27;;
2338;SDS011;1180;51.438;6.978;2023-03-16T15:52:02;4.80;;;1.50;;
2338;SDS011;1180;51.438;6.978;2023-03-16T15:54:28;1.63;;;1.53;;
2338;SDS011;1180;51.438;6.978;2023-03-16T15:56:53;2.10;;;1.53;;
2338;SDS011;1180;51.438;6.978;2023-03-16T15:59:20;2.23;;;1.53;;
2338;SDS011;1180;51.438;6.978;2023-03-16T16:01:48;1.13;;;1.00;;
2338;SDS011;1180;51.438;6.978;2023-03-16T16:04:15;2.80;;;1.37;;
2338;SDS011;1180;51.438;6.978;2023-03-16T16:06:43;1.40;;;1.30;;
2338;SDS011;1180;51.438;6.978;2023-03-16T16:09:10;5.00;;;1.47;;
2338;SDS011;1180;51.438;6.978;2023-03-16T16:11:36;3.80;;;1.87;;
2338;SDS011;1180;51.438;6.978;2023-03-16T16:14:03;1.97;;;1.30;;
2338;SDS011;1180;51.438;6.978;2023-03-16T16:16:29;1.27;;;1.17;;
2338;SDS011;1180;51.438;6.978;2023-03-16T16:18:56;2.47;;;1.30;;
2338;SDS011;1180;51.438;6.978;2023-03-16T16:21:23;4.10;;;1.80;;
2338;SDS011;1180;51.438;6.978;2023-03-16T16:23:50;1.90;;;1.43;;
2338;SDS011;1180;51.438;6.978;2023-03-16T16:28:48;1.80;;;1.27;;
2338;SDS011;1180;51.438;6.978;2023-03-16T16:31:13;1.70;;;1.30;;
2338;SDS011;1180;51.438;6.978;2023-03-16T16:33:39;2.37;;;1.43;;
2338;SDS011;1180;51.438;6.978;2023-03-16T16:36:05;2.93;;;1.60;;
2338;SDS011;1180;51.438;6.978;2023-03-16T16:38:36;1.87;;;1.40;;
2338;SDS011;1180;51.438;6.978;2023-03-16T16:41:01;5.00;;;1.17;;
2338;SDS011;1180;51.438;6.978;2023-03-16T16:46:14;2.80;;;1.20;;
2338;SDS011;1180;51.438;6.978;2023-03-16T16:48:44;6.57;;;1.30;;
2338;SDS011;1180;51.438;6.978;2023-03-16T16:51:14;4.80;;;1.33;;
2338;SDS011;1180;51.438;6.978;2023-03-16T16:53:42;1.57;;;1.40;;
2338;SDS011;1180;51.438;6.978;2023-03-16T16:56:15;3.90;;;1.27;;
2338;SDS011;1180;51.438;6.978;2023-03-16T16:58:42;1.17;;;1.07;;
2338;SDS011;1180;51.438;6.978;2023-03-16T17:01:13;4.80;;;1.33;;
2338;SDS011;1180;51.438;6.978;2023-03-16T17:03:41;2.33;;;1.37;;
2338;SDS011;1180;51.438;6.978;2023-03-16T17:06:14;1.43;;;1.33;;